createdAt,value
2023-01-01T05:01:59.545Z,98943.44
2023-01-01T05:06:12.701Z,98942.44
2023-01-01T05:10:24.200Z,98950.63
2023-01-01T05:14:35.693Z,98960.75
2023-01-01T05:18:47.864Z,98965.38
2023-01-01T05:22:59.401Z,98962.09
2023-01-01T05:27:11.542Z,98957.34
2023-01-01T05:31:27.627Z,98968.63
2023-01-01T05:35:39.401Z,98976.78
2023-01-01T05:39:50.924Z,98979.91
2023-01-01T05:44:03.417Z,98975.84
2023-01-01T05:48:14.942Z,98989.53
2023-01-01T05:52:27.263Z,99002.97
2023-01-01T05:56:38.820Z,98999.34
2023-01-01T06:00:50.610Z,99001.59
2023-01-01T06:05:02.217Z,98996.38
2023-01-01T06:09:13.799Z,98996.09
2023-01-01T06:13:25.303Z,99004.56
2023-01-01T06:17:36.795Z,99000.66
2023-01-01T06:21:49.421Z,99016.84
2023-01-01T06:26:24.602Z,99006.00
2023-01-01T06:30:36.968Z,99019.59
2023-01-01T06:34:48.590Z,99019.91
2023-01-01T06:39:00.501Z,99011.78
2023-01-01T06:43:12.025Z,99017.34
2023-01-01T06:47:23.568Z,99030.06
2023-01-01T06:51:41.315Z,99040.38
2023-01-01T06:55:57.322Z,99033.78
2023-01-01T07:00:09.661Z,99042.84
2023-01-01T07:04:21.343Z,99042.50
2023-01-01T07:08:33.341Z,99050.84
2023-01-01T07:12:44.914Z,99038.28
2023-01-01T07:16:58.272Z,99053.97
2023-01-01T07:21:32.716Z,99059.69
2023-01-01T07:25:48.618Z,99071.16
2023-01-01T07:30:00.215Z,99063.28
2023-01-01T07:34:23.766Z,99064.78
2023-01-01T07:38:35.283Z,99067.22
2023-01-01T07:42:46.765Z,99080.81
2023-01-01T07:47:03.423Z,99076.88
2023-01-01T07:51:14.915Z,99080.13
2023-01-01T07:55:27.434Z,99093.22
2023-01-01T07:59:38.981Z,99089.28
2023-01-01T08:03:52.355Z,99101.88
2023-01-01T08:08:04.003Z,99099.09
2023-01-01T08:12:15.494Z,99117.56
2023-01-01T08:16:27.005Z,99102.69
2023-01-01T08:20:38.531Z,99111.81
2023-01-01T08:24:50.047Z,99115.09
2023-01-01T08:29:06.400Z,99112.47
2023-01-01T08:33:17.886Z,99118.06
2023-01-01T08:37:29.456Z,99124.91
2023-01-01T08:41:40.990Z,99115.09
2023-01-01T08:45:52.504Z,99124.91
2023-01-01T08:50:04.529Z,99129.16
2023-01-01T08:54:16.050Z,99122.25
2023-01-01T08:58:27.731Z,99131.75
2023-01-01T09:02:39.412Z,99123.06
2023-01-01T09:06:51.109Z,99127.97
2023-01-01T09:11:03.353Z,99127.97
2023-01-01T09:15:17.233Z,99128.81
2023-01-01T09:19:28.979Z,99135.69
2023-01-01T09:23:40.593Z,99143.19
2023-01-01T09:27:59.359Z,99146.41
2023-01-01T09:32:11.022Z,99146.06
2023-01-01T09:36:30.098Z,99155.53
2023-01-01T09:40:53.264Z,99154.19
2023-01-01T09:45:41.979Z,99169.22
2023-01-01T09:49:56.273Z,99158.03
2023-01-01T09:54:18.851Z,99156.94
2023-01-01T09:58:36.511Z,99145.94
2023-01-01T10:03:01.587Z,99130.34
2023-01-01T10:07:33.029Z,99136.59
2023-01-01T10:12:35.141Z,99138.00
2023-01-01T10:16:52.448Z,99140.09
2023-01-01T10:21:26.328Z,99135.69
2023-01-01T10:25:40.690Z,99133.06
2023-01-01T10:29:55.621Z,99130.16
2023-01-01T10:34:20.549Z,99134.75
2023-01-01T10:38:35.729Z,99139.94
2023-01-01T10:42:52.537Z,99147.81
2023-01-01T10:47:24.867Z,99153.75
2023-01-01T10:51:42.102Z,99145.59
2023-01-01T10:56:03.542Z,99144.78
2023-01-01T11:00:27.067Z,99140.25
2023-01-01T11:04:38.683Z,99140.25
2023-01-01T11:08:52.970Z,99143.50
2023-01-01T11:13:18.880Z,99124.16
2023-01-01T11:17:34.204Z,99124.16
2023-01-01T11:21:48.748Z,99115.31
2023-01-01T11:26:03.215Z,99104.81
2023-01-01T11:30:21.332Z,99105.97
2023-01-01T11:34:37.896Z,99095.00
2023-01-01T11:39:08.014Z,99087.59
2023-01-01T11:43:30.935Z,99077.00
2023-01-01T11:47:43.567Z,99073.00
2023-01-01T11:51:55.280Z,99068.78
2023-01-01T11:56:17.232Z,99063.88
2023-01-01T12:00:33.947Z,99065.66
2023-01-01T12:04:57.121Z,99058.91
2023-01-01T12:09:30.031Z,99052.69
2023-01-01T12:13:50.905Z,99053.03
2023-01-01T12:18:16.010Z,99068.44
2023-01-01T12:22:27.808Z,99070.50
2023-01-01T12:27:10.580Z,99061.19
2023-01-01T12:31:38.840Z,99054.13
2023-01-01T12:36:00.877Z,99054.66
2023-01-01T12:40:37.071Z,99058.91
2023-01-01T12:44:57.705Z,99053.66
2023-01-01T12:49:28.108Z,99064.16
2023-01-01T12:54:04.102Z,99068.00
2023-01-01T12:58:27.003Z,99062.28
2023-01-01T13:02:46.944Z,99057.69
2023-01-01T13:07:06.276Z,99052.63
2023-01-01T13:11:18.144Z,99043.13
2023-01-01T13:15:38.637Z,99045.41
2023-01-01T13:20:15.108Z,99030.94
2023-01-01T13:24:27.645Z,99028.59
2023-01-01T13:28:39.161Z,99026.28
2023-01-01T13:33:26.993Z,99016.22
2023-01-01T13:37:43.674Z,99016.69
2023-01-01T13:41:55.195Z,99015.03
2023-01-01T13:46:15.286Z,99009.44
2023-01-01T13:50:32.541Z,99028.78
2023-01-01T13:55:16.801Z,99009.63
2023-01-01T13:59:48.139Z,99012.25
2023-01-01T14:04:01.558Z,99001.94
2023-01-01T14:08:30.009Z,99029.81
2023-01-01T14:12:41.653Z,99038.03
2023-01-01T14:16:57.301Z,99019.03
2023-01-01T14:21:18.280Z,99027.09
2023-01-01T14:25:29.864Z,99018.75
2023-01-01T14:29:42.065Z,99019.72
2023-01-01T14:33:53.669Z,99011.88
2023-01-01T14:38:25.765Z,99006.97
2023-01-01T14:42:37.283Z,99001.13
2023-01-01T14:46:51.489Z,99000.13
2023-01-01T14:51:03.007Z,98997.13
2023-01-01T14:55:19.269Z,98993.50
2023-01-01T14:59:32.894Z,98995.53
2023-01-01T15:04:01.153Z,99007.63
2023-01-01T15:08:21.663Z,99006.00
2023-01-01T15:12:34.810Z,98999.09
2023-01-01T15:16:59.999Z,99008.63
2023-01-01T15:21:18.551Z,99012.56
2023-01-01T15:25:35.926Z,98999.00
2023-01-01T15:29:47.514Z,98998.72
2023-01-01T15:33:59.019Z,99000.06
2023-01-01T15:38:17.311Z,98991.75
2023-01-01T15:42:38.970Z,98979.81
2023-01-01T15:46:53.747Z,98975.38
2023-01-01T15:51:19.063Z,98978.19
2023-01-01T15:55:34.707Z,98972.16
2023-01-01T15:59:47.639Z,98955.13
2023-01-01T16:04:22.049Z,98965.00
2023-01-01T16:08:37.575Z,98953.84
2023-01-01T16:12:49.161Z,98944.38
2023-01-01T16:17:01.889Z,98933.91
2023-01-01T16:21:13.489Z,98935.31
2023-01-01T16:25:24.981Z,98930.91
2023-01-01T16:29:42.467Z,98920.44
2023-01-01T16:33:57.026Z,98914.84
2023-01-01T16:38:11.942Z,98911.94
2023-01-01T16:42:23.506Z,98917.00
2023-01-01T16:46:35.172Z,98915.38
2023-01-01T16:50:51.020Z,98908.53
2023-01-01T16:55:02.663Z,98896.38
2023-01-01T16:59:15.190Z,98902.00
2023-01-01T17:03:26.832Z,98902.00
2023-01-01T17:07:38.311Z,98901.38
2023-01-01T17:11:49.810Z,98898.09
2023-01-01T17:16:05.230Z,98884.28
2023-01-01T17:20:16.874Z,98880.56
2023-01-01T17:24:28.368Z,98878.16
2023-01-01T17:28:40.070Z,98871.53
2023-01-01T17:32:51.548Z,98856.97
2023-01-01T17:37:03.043Z,98868.19
2023-01-01T17:41:16.063Z,98878.38
2023-01-01T17:45:27.548Z,98869.53
2023-01-01T17:49:39.850Z,98862.38
2023-01-01T17:53:51.648Z,98856.50
2023-01-01T17:58:03.168Z,98851.19
2023-01-01T18:02:15.142Z,98833.94
2023-01-01T18:06:27.234Z,98833.13
2023-01-01T18:10:38.712Z,98835.38
2023-01-01T18:14:50.200Z,98819.78
2023-01-01T18:19:05.201Z,98835.97
2023-01-01T18:23:16.691Z,98827.94
2023-01-01T18:27:28.198Z,98820.34
2023-01-01T18:31:39.866Z,98817.97
2023-01-01T18:35:59.477Z,98817.53
2023-01-01T18:40:14.186Z,98812.19
2023-01-01T18:44:38.035Z,98832.97
2023-01-01T18:48:53.916Z,98822.56
2023-01-01T18:53:37.153Z,98817.84
2023-01-01T18:58:00.643Z,98821.53
2023-01-01T19:02:34.172Z,98808.78
2023-01-01T19:06:46.531Z,98805.41
2023-01-01T19:11:00.258Z,98801.78
2023-01-01T19:15:20.065Z,98811.34
2023-01-01T19:19:38.102Z,98801.34
2023-01-01T19:23:55.200Z,98796.69
2023-01-01T19:28:15.754Z,98795.53
2023-01-01T19:32:27.223Z,98792.47
2023-01-01T19:36:39.406Z,98795.56
2023-01-01T19:40:50.914Z,98784.69
2023-01-01T19:45:02.707Z,98795.06
2023-01-01T19:49:14.227Z,98785.38
2023-01-01T19:53:25.828Z,98788.19
2023-01-01T19:57:37.304Z,98788.72
2023-01-01T20:02:09.949Z,98769.19
2023-01-01T20:06:20.285Z,98780.31
2023-01-01T20:10:31.816Z,98779.69
2023-01-01T20:14:43.322Z,98788.19
2023-01-01T20:18:54.850Z,98776.44
2023-01-01T20:23:06.312Z,98780.94
2023-01-01T20:27:18.793Z,98788.06
2023-01-01T20:31:30.437Z,98782.97
2023-01-01T20:36:00.616Z,98780.16
2023-01-01T20:40:12.323Z,98797.72
2023-01-01T20:44:23.897Z,98798.47
2023-01-01T20:48:35.374Z,98787.41
2023-01-01T20:52:46.987Z,98785.09
2023-01-01T20:56:58.578Z,98786.59
2023-01-01T21:01:10.176Z,98786.72
2023-01-01T21:05:21.767Z,98794.59
2023-01-01T21:09:33.284Z,98775.09
2023-01-01T21:13:45.040Z,98787.91
2023-01-01T21:17:56.779Z,98793.59
2023-01-01T21:22:12.486Z,98795.97
2023-01-01T21:26:28.617Z,98786.97
2023-01-01T21:30:50.710Z,98774.97
2023-01-01T21:35:02.278Z,98772.47
2023-01-01T21:39:14.324Z,98775.66
2023-01-01T21:43:32.357Z,98784.91
2023-01-01T21:47:44.076Z,98783.09
2023-01-01T21:52:00.777Z,98783.09
2023-01-01T21:56:28.489Z,98772.66
2023-01-01T22:00:40.007Z,98783.78
2023-01-01T22:04:51.625Z,98775.66
2023-01-01T22:09:13.894Z,98773.59
2023-01-01T22:13:26.959Z,98774.66
2023-01-01T22:17:39.105Z,98789.41
2023-01-01T22:21:52.045Z,98783.72
2023-01-01T22:26:29.999Z,98791.81
